Flight Track Log - Related Links

Times and Time Zones

All times are in EDT time to prevent confusion due to time zone crossing. See the ORK101 flight status page for this flight to view local times or setup timezone preferences in your user account.

Time Position Orientation Groundspeed Altitude Reporting Facility
EDT Latitude Longitude Course Direction KTS MPH feet Rate Location/Type
Mon 01:58:31 PM 49.1667 -123.1333 180° South 120 138 1,200  Level Vancouver Center
Mon 01:59:31 PM 49.1333 -123.1333 180° South 120 138 2,300 1,150 Climbing Vancouver Center
Mon 02:00:31 PM 49.1000 -123.1167 162° South 120 138 3,500 1,300 Climbing Vancouver Center
Mon 02:01:31 PM 49.0667 -123.1333 198° South 120 138 4,900 1,250 Climbing Vancouver Center
Mon 02:02:31 PM 49.0667 -123.1833 270° West 120 138 6,000 1,200 Climbing Vancouver Center
Mon 02:03:31 PM 49.0500 -123.2333 243° Southwest 120 138 7,300 1,400 Climbing Vancouver Center
Mon 02:04:31 PM 49.0500 -123.2833 270° West 120 138 8,800 1,300 Climbing Vancouver Center
Mon 02:05:31 PM 49.0500 -123.3333 270° West 110 127 9,900 600 Climbing Vancouver Center
Mon 02:06:31 PM 49.0500 -123.4000 270° West 140 161 10,000 50 Climbing Vancouver Center
Mon 02:07:31 PM 49.0500 -123.4667 270° West 150 173 10,000  Level Vancouver Center
Mon 02:08:31 PM 49.0500 -123.5500 270° West 160 184 10,000  Level Vancouver Center
Mon 02:09:31 PM 49.0500 -123.6000 270° West 160 184 10,000  Level Vancouver Center
Mon 02:10:31 PM 49.0500 -123.6667 270° West 170 196 10,000  Level Vancouver Center
Mon 02:11:31 PM 49.0500 -123.7500 270° West 170 196 10,000  Level Vancouver Center
Mon 02:12:31 PM 49.0500 -123.8167 270° West 170 196 10,000  Level Vancouver Center
Mon 02:13:31 PM 49.0500 -123.8833 270° West 170 196 10,000  Level Vancouver Center
Mon 02:14:31 PM 49.0500 -123.9500 270° West 160 184 10,000 50 Level Vancouver Center
Mon 02:15:31 PM 49.0500 -124.0333 270° West 170 196 10,100  Climbing Vancouver Center
Mon 02:16:31 PM 49.0500 -124.1000 270° West 170 196 10,000  Descending Vancouver Center
Mon 02:17:31 PM 49.0500 -124.1500 270° West 160 184 10,100  Climbing Vancouver Center
Mon 02:18:31 PM 49.0500 -124.2333 270° West 170 196 10,000 -50 Descending Vancouver Center
Mon 02:19:31 PM 49.0500 -124.3167 270° West 160 184 10,000 50 Level Vancouver Center
Mon 02:20:31 PM 49.0500 -124.3833 270° West 170 196 10,100  Climbing Vancouver Center
Mon 02:21:31 PM 49.0333 -124.4333 243° Southwest 160 184 10,000 -100 Descending Vancouver Center
Mon 02:22:31 PM 49.0333 -124.5167 270° West 170 196 9,900 -300 Descending Vancouver Center
Mon 02:24:31 PM 49.0167 -124.6667 260° West 170 196 9,100 -433 Descending Vancouver Center
Mon 02:25:31 PM 49.0167 -124.7167 270° West 170 196 8,600 -567 Descending Vancouver Center
Mon 02:27:31 PM 48.9833 -124.8667 251° West 180 207 7,400 -567 Descending Vancouver Center
Mon 02:28:31 PM 48.9667 -124.9500 253° West 170 196 6,900 -600 Descending Vancouver Center
Mon 02:29:31 PM 48.9667 -125.0000 270° West 170 196 6,200 -600 Descending Vancouver Center
Mon 02:30:31 PM 48.9500 -125.0667 249° West 170 196 5,700 -550 Descending Vancouver Center
Mon 02:31:31 PM 48.9500 -125.1500 270° West 170 196 5,100 -600 Descending Vancouver Center
Mon 02:32:31 PM 48.9333 -125.2167 249° West 170 196 4,500 -650 Descending Vancouver Center
Mon 02:33:31 PM 48.9333 -125.3000 270° West 170 196 3,800 -700 Descending Vancouver Center
Mon 02:34:31 PM 48.9333 -125.3667 270° West 170 196 3,100 -700 Descending Vancouver Center
Mon 02:35:31 PM 48.9167 -125.4500 253° West 170 196 2,400 -700 Descending Vancouver Center
Mon 02:36:31 PM 48.9000 -125.5000 243° Southwest 170 196 1,700 -650 Descending Vancouver Center
Mon 02:37:31 PM 48.9000 -125.5833 270° West 180 207 1,100 -300 Descending Vancouver Center
Mon 02:38:31 PM 48.9333 -125.6333 315° West 170 196 1,100  Level Vancouver Center
Mon 02:39:31 PM 48.9667 -125.6833 315° West 160 184 1,100  Level Vancouver Center
Mon 02:40:31 PM 49.0000 -125.7000 342° North 160 184 1,100 -150 Level Vancouver Center
Mon 02:41:31 PM 49.0333 -125.7333 327° Northwest 150 173 800 -300 Descending Vancouver Center

Login

Don't have an account? Register now (free) for customized features, flight alerts, and more!